Time;durP1;ratioP1;P1;durP2;ratioP2;P2;SDS_P1;SDS_P2;PMS_P1;PMS_P2;Temp;Humidity;BMP_temperature;BMP_pressure;BME280_temperature;BME280_humidity;BME280_pressure;Samples;Min_cycle;Max_cycle;Signal;HPM_P1;HPM_P2
2023/06/07 04:02:21;;;;;;;6.80;5.20;;;;;;;16.08;100.00;100388.63;5489474;28;20128;-81
2023/06/07 04:05:25;;;;;;;8.80;4.80;;;;;;;16.10;100.00;100383.84;5275631;33;34545;-84
2023/06/07 04:08:28;;;;;;;7.18;4.68;;;;;;;16.11;100.00;100382.78;5293356;33;35627;-84
2023/06/07 04:11:31;;;;;;;7.43;4.70;;;;;;;16.12;100.00;100375.47;5269826;33;35499;-85
2023/06/07 04:14:34;;;;;;;7.07;4.70;;;;;;;16.17;100.00;100378.38;5263542;33;33768;-82
2023/06/07 04:17:37;;;;;;;7.05;4.10;;;;;;;16.28;100.00;100380.44;5275564;33;33873;-81
2023/06/07 04:20:41;;;;;;;6.22;4.45;;;;;;;16.40;100.00;100375.16;5264646;33;33813;-81
2023/06/07 04:23:45;;;;;;;7.68;4.32;;;;;;;16.43;100.00;100375.53;5265975;33;33725;-81
2023/06/07 04:26:49;;;;;;;5.18;4.10;;;;;;;16.50;100.00;100387.22;5277803;33;34001;-81
2023/06/07 04:29:53;;;;;;;6.57;4.03;;;;;;;16.51;100.00;100382.63;5265990;33;33766;-81
2023/06/07 04:32:58;;;;;;;9.25;4.72;;;;;;;16.49;100.00;100384.72;5277646;33;33892;-81
2023/06/07 04:36:02;;;;;;;5.68;3.92;;;;;;;16.50;100.00;100386.41;5266124;33;33489;-82
2023/06/07 04:39:06;;;;;;;5.50;4.15;;;;;;;16.65;100.00;100386.94;5265339;33;33698;-81
2023/06/07 04:42:09;;;;;;;7.93;4.22;;;;;;;16.70;100.00;100383.56;5277076;33;35507;-81
2023/06/07 04:45:12;;;;;;;5.90;3.45;;;;;;;16.86;100.00;100384.97;5278002;33;33590;-81
2023/06/07 04:48:15;;;;;;;4.53;3.53;;;;;;;16.88;100.00;100394.59;5272259;33;34609;-83
2023/06/07 04:51:20;;;;;;;5.05;3.90;;;;;;;16.88;100.00;100386.44;5296802;33;34005;-83
2023/06/07 04:54:24;;;;;;;4.80;3.17;;;;;;;16.94;100.00;100395.59;5290150;33;33820;-83
2023/06/07 04:57:28;;;;;;;4.80;3.65;;;;;;;16.98;100.00;100392.19;5277276;33;33929;-83
2023/06/07 05:00:33;;;;;;;6.70;3.80;;;;;;;17.07;100.00;100390.03;5276957;33;34461;-83
2023/06/07 05:03:42;;;;;;;4.62;3.72;;;;;;;17.08;100.00;100394.44;5277039;33;33993;-83
2023/06/07 05:06:47;;;;;;;7.75;4.87;;;;;;;17.13;100.00;100402.75;5290262;33;34434;-83
2023/06/07 05:09:51;;;;;;;4.68;3.60;;;;;;;17.19;100.00;100406.50;5265263;33;34212;-83
2023/06/07 05:12:55;;;;;;;5.15;3.60;;;;;;;17.20;100.00;100409.00;5277145;33;34934;-83
2023/06/07 05:15:58;;;;;;;5.07;3.35;;;;;;;17.15;100.00;100400.66;5290222;33;34229;-83
2023/06/07 05:19:03;;;;;;;5.05;3.65;;;;;;;17.23;100.00;100405.00;5277521;33;34160;-83
2023/06/07 05:22:07;;;;;;;5.93;3.90;;;;;;;17.32;100.00;100397.41;5266311;33;33720;-83
2023/06/07 05:25:12;;;;;;;4.10;3.42;;;;;;;17.41;100.00;100399.63;5266288;33;33732;-83
2023/06/07 05:28:15;;;;;;;5.00;3.62;;;;;;;17.64;100.00;100396.28;5265250;33;34963;-83
2023/06/07 05:31:18;;;;;;;5.55;3.58;;;;;;;17.74;100.00;100390.31;5265476;33;34542;-83
2023/06/07 05:34:22;;;;;;;4.37;3.70;;;;;;;17.78;100.00;100397.00;5276932;33;34050;-83
2023/06/07 05:37:25;;;;;;;6.85;3.85;;;;;;;17.89;100.00;100393.53;5268249;33;34363;-83
2023/06/07 05:40:28;;;;;;;6.45;4.30;;;;;;;17.94;100.00;100392.87;5292418;33;34101;-83
2023/06/07 05:43:31;;;;;;;6.50;3.90;;;;;;;18.07;100.00;100395.44;5295062;33;33869;-83
2023/06/07 05:46:36;;;;;;;5.15;4.30;;;;;;;18.02;100.00;100397.19;5281186;33;34535;-83
2023/06/07 05:49:39;;;;;;;7.18;4.20;;;;;;;18.11;100.00;100398.56;5268920;33;34929;-83
2023/06/07 05:52:41;;;;;;;8.23;4.05;;;;;;;18.13;100.00;100402.72;5276219;33;34362;-83
2023/06/07 05:55:45;;;;;;;7.03;4.18;;;;;;;18.31;100.00;100406.47;5288696;33;34895;-83
2023/06/07 05:58:51;;;;;;;4.55;3.62;;;;;;;18.41;100.00;100403.25;5253360;33;33550;-83
2023/06/07 06:01:54;;;;;;;5.03;4.30;;;;;;;18.50;100.00;100402.69;5270199;33;34824;-83
2023/06/07 06:04:58;;;;;;;5.25;4.18;;;;;;;18.43;100.00;100403.81;5253810;33;33532;-86
2023/06/07 06:08:00;;;;;;;7.40;4.10;;;;;;;18.35;100.00;100404.97;5272826;33;34127;-83
2023/06/07 06:11:03;;;;;;;6.28;4.00;;;;;;;18.51;100.00;100408.97;5271006;33;34461;-86
2023/06/07 06:14:06;;;;;;;7.12;4.22;;;;;;;18.38;100.00;100412.69;5265438;33;34046;-87
2023/06/07 06:17:12;;;;;;;7.10;4.12;;;;;;;18.45;100.00;100412.63;5265249;33;34021;-83
2023/06/07 06:20:16;;;;;;;6.18;4.20;;;;;;;18.54;100.00;100414.81;5276837;33;33818;-83
2023/06/07 06:23:20;;;;;;;9.85;4.25;;;;;;;18.54;100.00;100417.53;5278802;33;34749;-83
2023/06/07 06:26:27;;;;;;;8.13;4.18;;;;;;;18.75;100.00;100416.25;5292208;33;34680;-83
2023/06/07 06:29:30;;;;;;;5.95;3.80;;;;;;;18.85;100.00;100415.69;5270533;33;33548;-83
2023/06/07 06:32:33;;;;;;;4.40;3.50;;;;;;;18.76;100.00;100415.16;5287074;33;33691;-83
2023/06/07 06:35:37;;;;;;;5.60;4.05;;;;;;;18.85;100.00;100425.75;5284271;33;34450;-83
2023/06/07 06:38:39;;;;;;;6.12;4.05;;;;;;;18.72;100.00;100416.69;5289287;33;33654;-83
2023/06/07 06:41:43;;;;;;;7.37;4.20;;;;;;;18.90;100.00;100418.56;5280865;33;34803;-83
2023/06/07 06:44:49;;;;;;;9.52;4.32;;;;;;;18.94;100.00;100427.94;5272459;33;34006;-83
2023/06/07 06:47:54;;;;;;;6.65;4.47;;;;;;;18.86;100.00;100416.50;5265963;33;34718;-83
2023/06/07 06:50:57;;;;;;;5.78;4.15;;;;;;;18.95;100.00;100421.44;5323964;33;33780;-83
2023/06/07 06:54:00;;;;;;;8.43;4.37;;;;;;;18.86;100.00;100420.06;5302269;33;35436;-83
2023/06/07 06:57:03;;;;;;;7.15;4.37;;;;;;;18.59;100.00;100425.84;5282167;33;34958;-83
2023/06/07 07:00:08;;;;;;;9.25;4.62;;;;;;;18.32;100.00;100427.25;5282992;33;33762;-83
2023/06/07 07:03:11;;;;;;;9.73;4.80;;;;;;;18.31;100.00;100426.41;5293980;33;33358;-83
2023/06/07 07:06:16;;;;;;;9.25;4.75;;;;;;;18.25;100.00;100424.59;5291912;33;33784;-83
2023/06/07 07:09:19;;;;;;;6.57;4.70;;;;;;;18.58;100.00;100417.91;5280862;33;33793;-83
2023/06/07 07:12:22;;;;;;;7.62;4.75;;;;;;;18.77;100.00;100418.72;5276107;33;33964;-82
2023/06/07 07:15:27;;;;;;;10.52;4.25;;;;;;;18.95;100.00;100426.87;5275820;33;33375;-83
2023/06/07 07:18:30;;;;;;;5.22;4.12;;;;;;;19.23;100.00;100433.59;5275391;33;34136;-83
2023/06/07 07:21:33;;;;;;;6.03;4.62;;;;;;;19.39;100.00;100432.09;5275714;33;33825;-83
2023/06/07 07:24:36;;;;;;;8.32;4.87;;;;;;;19.69;100.00;100423.84;5264155;33;33887;-83
2023/06/07 07:27:39;;;;;;;6.93;4.37;;;;;;;19.85;100.00;100434.06;5265071;33;33814;-83
2023/06/07 07:30:42;;;;;;;4.47;3.90;;;;;;;20.09;100.00;100425.84;5286233;33;33604;-83
2023/06/07 07:33:45;;;;;;;5.82;4.72;;;;;;;20.08;100.00;100433.22;5270424;33;33775;-83
2023/06/07 07:36:50;;;;;;;9.13;4.45;;;;;;;19.90;100.00;100438.81;5264734;33;33364;-83
2023/06/07 07:39:52;;;;;;;6.55;4.37;;;;;;;19.85;100.00;100435.97;5264588;33;33926;-83
2023/06/07 07:42:55;;;;;;;6.30;4.40;;;;;;;20.16;100.00;100437.50;5263671;33;34759;-83
2023/06/07 07:45:58;;;;;;;7.53;4.75;;;;;;;20.08;100.00;100437.84;5288104;33;33454;-83
2023/06/07 07:49:01;;;;;;;10.13;4.45;;;;;;;20.15;100.00;100442.12;5264648;33;33502;-83
2023/06/07 07:52:05;;;;;;;7.20;4.72;;;;;;;20.03;100.00;100437.72;5263589;33;33892;-83
2023/06/07 07:55:08;;;;;;;5.47;4.30;;;;;;;20.31;100.00;100439.72;5275216;33;33612;-82
2023/06/07 07:58:11;;;;;;;6.45;4.50;;;;;;;20.53;100.00;100442.66;5278082;33;33712;-83
2023/06/07 08:01:16;;;;;;;6.65;4.35;;;;;;;20.70;100.00;100437.28;5278001;33;34859;-82
2023/06/07 08:04:19;;;;;;;6.60;4.50;;;;;;;20.99;100.00;100444.41;5290250;33;34209;-82
2023/06/07 08:07:22;;;;;;;6.22;4.97;;;;;;;20.99;100.00;100441.66;5265660;33;33963;-82
2023/06/07 08:10:26;;;;;;;6.68;4.40;;;;;;;20.98;100.00;100448.22;5276958;33;34938;-82
2023/06/07 08:13:29;;;;;;;7.68;4.32;;;;;;;20.97;100.00;100451.19;5277061;33;33935;-86
2023/06/07 08:16:32;;;;;;;6.57;4.60;;;;;;;20.87;100.00;100445.53;5265918;33;33843;-86
2023/06/07 08:19:35;;;;;;;5.57;4.50;;;;;;;20.98;100.00;100450.13;5265563;33;33567;-86
2023/06/07 08:22:38;;;;;;;9.45;4.60;;;;;;;21.05;100.00;100450.81;5265416;33;34563;-86
2023/06/07 08:25:41;;;;;;;7.25;4.53;;;;;;;21.00;100.00;100448.81;5290064;33;33987;-84
2023/06/07 08:28:43;;;;;;;6.87;4.35;;;;;;;21.12;100.00;100447.91;5296237;33;33658;-83
2023/06/07 08:31:47;;;;;;;11.45;4.65;;;;;;;20.91;100.00;100446.72;5256552;33;34529;-83
2023/06/07 08:34:50;;;;;;;8.18;4.60;;;;;;;20.95;100.00;100437.78;5269852;33;34756;-83
2023/06/07 08:37:52;;;;;;;6.15;4.22;;;;;;;20.84;100.00;100444.94;5281874;33;33872;-84
2023/06/07 08:40:56;;;;;;;8.02;4.43;;;;;;;20.93;100.00;100442.66;5279232;33;35622;-82
2023/06/07 08:43:59;;;;;;;6.90;4.28;;;;;;;21.02;100.00;100443.91;5290695;33;33763;-83
2023/06/07 08:47:02;;;;;;;6.93;4.57;;;;;;;21.18;100.00;100438.75;5286601;33;33832;-84
2023/06/07 08:50:09;;;;;;;5.07;4.20;;;;;;;21.27;100.00;100434.53;5293810;33;33973;-84
2023/06/07 08:53:13;;;;;;;9.98;4.60;;;;;;;21.58;100.00;100432.31;5265055;33;33451;-84
2023/06/07 08:56:17;;;;;;;6.07;4.68;;;;;;;21.28;100.00;100431.50;5277449;33;34575;-84
2023/06/07 08:59:24;;;;;;;6.85;4.35;;;;;;;21.27;100.00;100434.53;5268009;33;33604;-84
2023/06/07 09:02:27;;;;;;;5.95;4.60;;;;;;;21.66;100.00;100429.16;5277159;33;34298;-84
2023/06/07 09:05:30;;;;;;;5.07;4.55;;;;;;;21.75;99.02;100427.66;5277623;33;33856;-84
2023/06/07 09:08:32;;;;;;;6.47;4.60;;;;;;;21.54;100.00;100425.69;5290844;33;33778;-84
2023/06/07 09:11:36;;;;;;;6.85;4.43;;;;;;;21.45;100.00;100428.81;5277391;33;34644;-84
2023/06/07 09:14:39;;;;;;;10.20;4.82;;;;;;;21.37;100.00;100423.75;5277173;33;33799;-84
2023/06/07 09:18:10;;;;;;;7.80;4.90;;;;;;;21.55;100.00;100430.91;5277245;33;34263;-84
2023/06/07 09:21:24;;;;;;;10.95;4.95;;;;;;;21.49;100.00;100434.63;5288857;33;33872;-84
2023/06/07 09:24:28;;;;;;;6.97;4.90;;;;;;;21.62;100.00;100433.50;5290364;33;34504;-84
2023/06/07 09:27:31;;;;;;;5.18;4.60;;;;;;;21.57;99.64;100430.66;5289910;33;33327;-84
2023/06/07 09:30:35;;;;;;;5.70;5.00;;;;;;;21.82;99.72;100431.06;5276744;33;34505;-84
2023/06/07 09:33:38;;;;;;;7.78;5.25;;;;;;;21.65;100.00;100433.81;5263063;33;33932;-84
2023/06/07 09:37:01;;;;;;;6.93;5.35;;;;;;;21.44;100.00;100431.81;5289175;33;33475;-84
2023/06/07 09:40:08;;;;;;;7.32;5.20;;;;;;;21.75;100.00;100435.88;5274717;33;33760;-84
2023/06/07 09:43:11;;;;;;;6.80;4.55;;;;;;;21.81;99.10;100445.00;5275961;33;34911;-87
2023/06/07 09:46:14;;;;;;;6.57;5.32;;;;;;;21.93;99.66;100441.06;5264402;33;34060;-88
2023/06/07 09:49:31;;;;;;;6.68;5.30;;;;;;;21.73;100.00;100443.50;5270495;33;33639;-88
2023/06/07 09:52:35;;;;;;;6.57;5.60;;;;;;;21.39;100.00;100443.53;5271207;33;35433;-84
2023/06/07 09:55:38;;;;;;;6.25;4.82;;;;;;;21.34;100.00;100443.41;5293210;33;33811;-84
2023/06/07 09:58:40;;;;;;;6.78;5.45;;;;;;;20.97;100.00;100441.09;5292004;33;35583;-84
2023/06/07 10:01:46;;;;;;;9.00;5.35;;;;;;;21.27;100.00;100435.34;5276737;33;33593;-84
2023/06/07 10:04:52;;;;;;;5.93;4.70;;;;;;;21.58;100.00;100437.78;5276901;33;33743;-84
2023/06/07 10:08:00;;;;;;;5.78;5.18;;;;;;;21.52;100.00;100436.87;5293352;33;34469;-84
2023/06/07 10:11:03;;;;;;;5.72;5.12;;;;;;;21.31;100.00;100429.38;5304248;33;35108;-84
2023/06/07 10:14:11;;;;;;;6.40;5.28;;;;;;;21.24;100.00;100435.00;5264999;33;33215;-84
2023/06/07 10:17:17;;;;;;;6.87;5.50;;;;;;;21.16;100.00;100429.94;5288877;33;33752;-84
2023/06/07 10:20:26;;;;;;;5.90;5.12;;;;;;;20.93;100.00;100426.22;5274901;33;33944;-84
2023/06/07 10:23:46;;;;;;;6.22;4.82;;;;;;;20.83;100.00;100421.41;5292729;33;33964;-84
2023/06/07 10:26:57;;;;;;;5.95;4.93;;;;;;;20.87;100.00;100419.00;5288716;33;34289;-83
2023/06/07 10:30:10;;;;;;;7.12;5.32;;;;;;;20.93;100.00;100417.19;5288447;33;34128;-84
2023/06/07 10:33:15;;;;;;;7.60;5.30;;;;;;;21.34;100.00;100421.47;5291119;33;33932;-84
2023/06/07 10:36:23;;;;;;;8.00;5.30;;;;;;;21.59;100.00;100429.34;5281626;33;34030;-84
2023/06/07 10:39:26;;;;;;;7.67;6.13;;;;;;;21.62;99.57;100426.09;5281603;33;33477;-84
2023/06/07 10:42:29;;;;;;;9.48;5.32;;;;;;;21.76;98.44;100426.56;5288486;33;34101;-83
2023/06/07 10:45:32;;;;;;;6.72;5.22;;;;;;;21.93;99.35;100423.81;5273309;33;34013;-83
2023/06/07 10:48:37;;;;;;;9.05;5.10;;;;;;;22.21;98.48;100425.62;5260588;33;34033;-84
2023/06/07 10:51:51;;;;;;;6.75;4.82;;;;;;;22.07;97.14;100421.53;5275651;33;33812;-83
2023/06/07 10:54:54;;;;;;;8.07;5.60;;;;;;;22.36;94.70;100420.31;5284495;33;33693;-88
2023/06/07 10:58:00;;;;;;;6.57;4.93;;;;;;;22.45;95.12;100419.87;5276514;33;33759;-88
2023/06/07 11:01:26;;;;;;;8.65;5.00;;;;;;;22.78;91.93;100421.62;5288105;33;33923;-84
2023/06/07 11:04:37;;;;;;;7.10;4.60;;;;;;;23.14;91.87;100419.28;5258283;33;34295;-84
2023/06/07 11:07:47;;;;;;;6.75;4.95;;;;;;;23.24;89.31;100413.87;5288965;33;34011;-84
2023/06/07 11:10:50;;;;;;;5.55;4.70;;;;;;;23.02;92.42;100413.94;5277571;33;33968;-84
2023/06/07 11:13:53;;;;;;;6.65;4.62;;;;;;;23.09;91.01;100417.31;5267315;33;33408;-84
2023/06/07 11:16:56;;;;;;;7.05;4.55;;;;;;;23.13;91.14;100415.69;5282455;33;34794;-84
2023/06/07 11:20:00;;;;;;;6.35;4.50;;;;;;;23.33;91.62;100423.31;5273727;33;35285;-82
2023/06/07 11:23:35;;;;;;;9.73;4.78;;;;;;;23.47;88.25;100421.78;5270132;33;35278;-83
2023/06/07 11:26:40;;;;;;;8.20;4.95;;;;;;;23.70;90.21;100409.63;5274496;33;34085;-83
2023/06/07 11:29:43;;;;;;;5.57;4.40;;;;;;;24.01;86.04;100411.72;5277428;33;33902;-83
2023/06/07 11:32:49;;;;;;;5.10;4.03;;;;;;;24.42;86.12;100412.75;5289079;33;33964;-83
2023/06/07 11:35:53;;;;;;;4.80;4.30;;;;;;;24.65;81.97;100408.75;5290956;33;34098;-83
2023/06/07 11:38:59;;;;;;;4.82;3.97;;;;;;;25.22;79.43;100407.78;5289748;33;33369;-84
2023/06/07 11:42:03;;;;;;;5.12;4.50;;;;;;;25.49;78.44;100410.28;5281661;33;33806;-83
2023/06/07 11:45:06;;;;;;;6.75;4.10;;;;;;;26.62;74.84;100415.56;5290927;33;34555;-82
2023/06/07 11:48:09;;;;;;;6.25;4.05;;;;;;;26.79;72.03;100404.13;5281493;33;33963;-84
2023/06/07 11:51:17;;;;;;;7.00;4.20;;;;;;;26.51;73.99;100398.22;5278709;33;34169;-83
2023/06/07 11:54:24;;;;;;;6.62;4.55;;;;;;;26.42;73.17;100394.38;5275326;33;33751;-83
2023/06/07 11:57:32;;;;;;;7.30;5.00;;;;;;;26.76;68.63;100400.00;5286589;33;33648;-83
2023/06/07 12:00:37;;;;;;;8.47;5.20;;;;;;;26.27;71.14;100392.50;5275457;33;34551;-83
2023/06/07 12:03:40;;;;;;;8.10;5.25;;;;;;;26.43;72.12;100398.75;5287751;33;33884;-87
2023/06/07 12:06:48;;;;;;;6.60;5.18;;;;;;;26.06;74.34;100401.94;5286649;33;34428;-88
2023/06/07 12:09:51;;;;;;;6.37;5.00;;;;;;;25.90;72.55;100388.19;5267489;33;34929;-84
2023/06/07 12:13:23;;;;;;;7.00;5.07;;;;;;;26.75;70.39;100389.25;5275568;33;33851;-84
2023/06/07 12:16:27;;;;;;;8.93;5.65;;;;;;;26.32;70.43;100378.66;5277242;33;33774;-84
2023/06/07 12:19:30;;;;;;;7.32;5.50;;;;;;;26.59;71.28;100380.19;5275407;33;34129;-84
2023/06/07 12:22:34;;;;;;;6.00;5.00;;;;;;;27.13;68.36;100366.31;5273144;33;33703;-84
2023/06/07 12:25:37;;;;;;;5.80;5.03;;;;;;;28.59;67.52;100362.59;5281017;33;34264;-84
2023/06/07 12:28:42;;;;;;;6.37;5.00;;;;;;;31.83;54.33;100353.75;5288940;33;33570;-84
2023/06/07 12:31:47;;;;;;;7.93;4.90;;;;;;;34.48;45.50;100335.75;5289021;33;34142;-84
2023/06/07 12:34:50;;;;;;;5.10;4.60;;;;;;;35.14;41.25;100328.66;5275889;33;34147;-84
2023/06/07 12:37:55;;;;;;;5.70;4.60;;;;;;;34.67;39.74;100326.91;5293215;33;34895;-84
2023/06/07 12:40:58;;;;;;;5.53;4.47;;;;;;;32.52;44.39;100325.28;5302953;33;34236;-83
2023/06/07 12:44:04;;;;;;;4.95;4.45;;;;;;;32.48;44.65;100322.34;5261287;33;34221;-84
2023/06/07 12:47:09;;;;;;;5.43;4.20;;;;;;;34.44;41.07;100320.81;5304871;33;34137;-84
2023/06/07 12:50:11;;;;;;;7.10;4.28;;;;;;;36.32;37.33;100321.44;5279746;33;33583;-84
2023/06/07 12:53:14;;;;;;;5.30;3.87;;;;;;;37.32;32.81;100317.94;5266169;33;34705;-84
2023/06/07 12:56:17;;;;;;;9.48;4.03;;;;;;;38.55;30.29;100324.25;5259301;33;33779;-84
2023/06/07 12:59:21;;;;;;;4.95;4.10;;;;;;;36.21;33.37;100318.28;5273814;33;33888;-84
2023/06/07 13:02:23;;;;;;;4.22;3.83;;;;;;;33.41;36.95;100323.75;5276909;33;33631;-84
2023/06/07 13:05:28;;;;;;;6.07;4.10;;;;;;;30.39;42.97;100325.88;5251460;33;34577;-84
2023/06/07 13:08:31;;;;;;;4.50;3.80;;;;;;;30.06;45.71;100320.41;5261262;33;34700;-84
2023/06/07 13:11:35;;;;;;;5.18;3.50;;;;;;;34.43;36.01;100313.59;5275152;33;33886;-84
2023/06/07 13:14:38;;;;;;;4.18;3.70;;;;;;;35.26;35.38;100314.69;5288862;33;33830;-84
2023/06/07 13:17:42;;;;;;;5.45;3.78;;;;;;;35.34;35.65;100312.97;5279161;33;33855;-86
2023/06/07 13:20:49;;;;;;;5.85;4.35;;;;;;;36.26;33.06;100308.84;5264007;33;34205;-85
2023/06/07 13:23:52;;;;;;;6.80;4.20;;;;;;;37.49;32.39;100305.59;5260046;33;34092;-85
2023/06/07 13:26:55;;;;;;;4.93;4.07;;;;;;;35.35;33.88;100307.03;5259742;33;34246;-84
2023/06/07 13:29:58;;;;;;;7.25;4.50;;;;;;;33.06;38.81;100303.50;5275298;33;33863;-83
2023/06/07 13:33:01;;;;;;;8.45;4.68;;;;;;;31.03;46.20;100302.69;5276761;33;33963;-83
2023/06/07 13:36:04;;;;;;;8.68;5.07;;;;;;;28.88;48.66;100299.53;5284172;33;33525;-83
2023/06/07 13:39:07;;;;;;;7.85;4.82;;;;;;;27.84;53.87;100300.41;5263246;33;34824;-83
2023/06/07 13:42:11;;;;;;;11.15;5.03;;;;;;;27.28;56.95;100307.34;5259899;33;34610;-83
2023/06/07 13:45:14;;;;;;;7.53;4.62;;;;;;;26.83;62.19;100301.06;5262107;33;34236;-83
2023/06/07 13:48:17;;;;;;;7.62;5.07;;;;;;;25.98;61.02;100302.09;5272303;33;34954;-86
2023/06/07 13:51:20;;;;;;;4.78;4.30;;;;;;;26.21;60.87;100295.09;5289387;33;34465;-87
2023/06/07 13:54:24;;;;;;;9.63;4.72;;;;;;;28.20;52.94;100292.50;5291902;33;34427;-88
2023/06/07 13:57:27;;;;;;;6.28;4.80;;;;;;;31.34;46.06;100286.84;5277012;33;34474;-87
2023/06/07 14:00:30;;;;;;;5.72;4.22;;;;;;;34.01;38.96;100282.75;5287414;33;34937;-83
2023/06/07 14:03:34;;;;;;;8.60;4.43;;;;;;;33.62;37.95;100281.19;5287675;33;33835;-84
2023/06/07 14:06:38;;;;;;;6.47;4.65;;;;;;;32.84;41.22;100278.53;5288599;33;33349;-84
2023/06/07 14:09:42;;;;;;;10.02;4.35;;;;;;;31.70;43.10;100280.31;5273080;33;34547;-84
2023/06/07 14:12:44;;;;;;;5.47;4.45;;;;;;;30.49;46.54;100275.59;5274977;33;33515;-84
2023/06/07 14:15:48;;;;;;;6.75;4.62;;;;;;;29.27;49.53;100269.78;5265069;33;33556;-84
2023/06/07 14:18:59;;;;;;;6.07;4.53;;;;;;;28.47;52.62;100269.69;5262332;33;33910;-85
2023/06/07 14:22:07;;;;;;;9.20;4.72;;;;;;;27.57;56.28;100267.78;5276564;33;34237;-84
2023/06/07 14:25:10;;;;;;;5.47;4.87;;;;;;;26.81;58.37;100259.09;5264320;33;34937;-84
2023/06/07 14:28:13;;;;;;;11.93;5.12;;;;;;;26.22;60.37;100268.31;5288279;33;33789;-84
2023/06/07 14:31:21;;;;;;;7.32;5.25;;;;;;;26.23;62.43;100259.72;5267126;33;33435;-84
2023/06/07 14:34:25;;;;;;;9.38;5.12;;;;;;;25.55;64.38;100268.56;5277356;33;33564;-84
2023/06/07 14:37:27;;;;;;;7.20;4.82;;;;;;;25.48;65.91;100268.03;5294340;33;33942;-84
2023/06/07 14:40:30;;;;;;;6.70;5.05;;;;;;;26.08;64.92;100268.09;5256678;33;34812;-84
2023/06/07 14:43:34;;;;;;;5.90;4.97;;;;;;;26.49;61.53;100262.34;5280645;33;32102;-84
2023/06/07 14:46:37;;;;;;;9.40;5.45;;;;;;;26.41;61.66;100257.41;5285257;33;276665;-84
2023/06/07 14:49:39;;;;;;;6.60;5.05;;;;;;;26.05;62.96;100251.28;5280992;33;33864;-84
2023/06/07 14:52:42;;;;;;;7.43;5.60;;;;;;;25.60;63.63;100250.37;5276317;33;34538;-84
2023/06/07 14:55:45;;;;;;;7.53;5.50;;;;;;;25.65;62.33;100248.38;5265012;33;33971;-84
2023/06/07 14:58:48;;;;;;;6.95;5.55;;;;;;;25.29;64.49;100256.78;5276254;33;33784;-82
2023/06/07 15:01:51;;;;;;;7.95;6.12;;;;;;;25.21;65.21;100251.81;5288670;33;34074;-83
2023/06/07 15:04:54;;;;;;;7.47;5.55;;;;;;;24.58;67.96;100249.34;5289315;33;34608;-84
2023/06/07 15:07:56;;;;;;;6.35;5.50;;;;;;;24.40;70.26;100244.34;5263993;33;33501;-83
2023/06/07 15:10:59;;;;;;;7.30;5.50;;;;;;;24.31;71.79;100241.31;5264308;33;33331;-83
2023/06/07 15:14:02;;;;;;;10.38;5.93;;;;;;;24.12;74.50;100235.47;5264423;33;34177;-83
2023/06/07 15:17:10;;;;;;;8.75;6.22;;;;;;;23.98;78.34;100240.69;5275956;33;33441;-83
2023/06/07 15:20:13;;;;;;;7.87;5.80;;;;;;;23.73;80.77;100248.84;5276844;33;34435;-83
2023/06/07 15:23:16;;;;;;;7.18;5.43;;;;;;;23.70;80.95;100241.94;5269158;33;33663;-83
2023/06/07 15:26:19;;;;;;;9.77;5.30;;;;;;;23.37;81.88;100243.13;5277618;33;34540;-83
2023/06/07 15:29:22;;;;;;;7.05;4.65;;;;;;;23.25;81.15;100250.72;5275811;33;33721;-83
2023/06/07 15:32:25;;;;;;;7.12;4.62;;;;;;;23.21;81.85;100255.09;5264517;33;33474;-84
2023/06/07 15:35:28;;;;;;;6.65;4.95;;;;;;;23.13;79.66;100256.41;5301168;33;34503;-84
2023/06/07 15:38:35;;;;;;;6.82;5.03;;;;;;;23.51;82.09;100258.03;5272149;33;34045;-84
2023/06/07 15:41:38;;;;;;;7.05;5.25;;;;;;;23.69;79.84;100261.41;5288593;33;33844;-84
2023/06/07 15:44:44;;;;;;;9.32;5.25;;;;;;;23.94;79.47;100268.97;5275653;33;33867;-84
2023/06/07 15:48:00;;;;;;;6.35;4.40;;;;;;;24.10;75.23;100273.44;5288510;33;33880;-84
2023/06/07 15:51:03;;;;;;;6.12;4.50;;;;;;;23.88;76.85;100284.63;5288407;33;33894;-85
2023/06/07 15:54:06;;;;;;;5.53;4.20;;;;;;;24.28;74.14;100276.78;5288139;33;34854;-84
2023/06/07 15:57:09;;;;;;;5.45;4.32;;;;;;;24.42;72.95;100281.53;5263774;33;34408;-84
